Latest Weather Observations for Warruwi

IDD60801

Issued at 3:05 pm CST Friday 1 August 2014 (issued every 30 minutes, with the page automatically refreshed every 10 minutes)

About weather observations | Map of weather stations | Latest weather observations for NT | Other Formats
Station Details ID: 014401 Name: WARRUWI AIRPORT Lat: -11.65 Lon: 133.38 Height: 19.2 m
Data from the previous 72 hours. | See also: Recent months at Warruwi
Date/Time
CST
Temp
°C
App
Temp
°C
Dew
Point
Rel
Hum
%
Delta-T
°C
Wind Press
QNH
hPa
Press
MSL
hPa
Rain
since 9 am
mm
Dir
 
Spd
km/h
Gust
km/h
Spd
kts
Gust
kts
01/03:00pm 27.8 28.2 19.8 61 5.2 E 17 26 9 14 1012.5 1012.4 0.0
01/02:30pm 27.7 27.8 20.3 64 4.9 E 20 28 11 15 1012.8 1012.7 0.0
01/02:00pm 27.5 27.8 19.6 62 5.1 E 17 28 9 15 1013.5 - 0.0
01/01:30pm 28.1 28.3 20.1 62 5.2 E 19 24 10 13 1014.2 1014.1 0.0
01/01:00pm 27.8 28.2 20.6 65 4.7 E 19 26 10 14 1014.6 - 0.0
01/12:30pm 27.9 28.2 20.5 64 4.9 E 19 24 10 13 1015.0 1014.9 0.0
01/12:00pm 27.3 28.4 21.3 69 4.0 E 17 22 9 12 1015.3 1015.2 0.0
01/11:30am 27.2 28.3 21.2 69 4.0 E 17 22 9 12 1015.6 1015.5 0.0
01/11:00am 27.3 29.1 21.8 72 3.7 E 15 20 8 11 1015.7 - 0.0
01/10:30am 26.8 28.2 21.8 74 3.3 ESE 17 22 9 12 1015.9 1015.8 0.0
01/10:00am 26.2 27.9 21.6 76 3.1 ESE 15 24 8 13 1016.2 - 0.0
01/09:30am 25.9 27.6 21.6 77 2.9 ESE 15 22 8 12 1016.2 1016.1 0.0
01/09:00am 25.3 26.9 21.4 79 2.6 ESE 15 20 8 11 1015.9 1015.8 0.0
01/08:30am 24.7 25.9 21.4 82 2.2 ESE 17 22 9 12 1015.6 1015.5 0.0
01/08:00am 24.4 26.4 21.5 84 1.9 ESE 13 19 7 10 1015.2 - 0.0
01/07:30am 23.7 26.5 21.6 88 1.4 ESE 9 13 5 7 1015.0 1014.9 0.0
01/07:00am 23.5 26.2 21.4 88 1.4 ESE 9 11 5 6 1015.0 - 0.0
01/06:30am 24.0 25.9 21.3 85 1.8 ESE 13 19 7 10 1014.9 1014.8 0.0
01/06:00am 24.6 26.2 20.7 79 2.6 E 13 22 7 12 1014.7 1014.6 0.0
01/05:30am 24.7 26.1 21.0 80 2.4 E 15 24 8 13 1014.4 1014.3 0.0
01/05:00am 24.6 26.0 21.1 81 2.3 E 15 24 8 13 1014.2 - 0.0
01/04:30am 24.5 25.1 21.0 81 2.3 E 19 28 10 15 1013.9 1013.8 0.0
01/04:00am 24.7 25.5 21.4 82 2.2 E 19 30 10 16 1013.9 - 0.0
01/03:30am 24.7 25.5 21.4 82 2.2 E 19 30 10 16 1014.0 1013.9 0.0
01/03:00am 24.7 25.9 21.4 82 2.2 E 17 26 9 14 1014.0 1013.9 0.0
01/02:30am 24.9 26.2 21.6 82 2.2 E 17 26 9 14 1014.3 1014.2 0.0
01/02:00am 24.8 26.0 21.5 82 2.2 E 17 28 9 15 1014.4 - 0.0
01/01:30am 24.8 26.5 21.7 83 2.1 E 15 28 8 15 1014.4 1014.3 0.0
01/01:00am 24.9 26.5 22.2 85 1.8 E 17 28 9 15 1014.4 - 0.0
01/12:30am 24.9 26.8 22.0 84 1.9 E 15 26 8 14 1014.3 1014.2 0.0
01/12:00am 24.8 27.0 21.9 84 1.9 E 13 24 7 13 1014.2 1014.1 0.0
 
Date/Time
CST
Temp
°C
App
Temp
°C
Dew
Point
Rel
Hum
%
Delta-T
°C
Wind Press
QNH
hPa
Press
MSL
hPa
Rain
since 9 am
mm
Dir
 
Spd
km/h
Gust
km/h
Spd
kts
Gust
kts
31/11:30pm 24.8 27.4 21.9 84 1.9 ENE 11 17 6 9 1014.1 1014.0 0.0
31/11:00pm 24.7 28.1 22.0 85 1.8 ENE 7 15 4 8 1014.2 - 0.0
31/10:30pm 24.6 27.8 21.7 84 1.9 ENE 7 13 4 7 1014.3 1014.2 0.0
31/10:00pm 24.6 27.8 21.7 84 1.9 ENE 7 15 4 8 1014.3 - 0.0
31/09:30pm 24.6 27.5 21.7 84 1.9 ENE 9 15 5 8 1014.3 1014.2 0.0
31/09:00pm 24.6 27.8 21.7 84 1.9 ENE 7 13 4 7 1014.1 1014.0 0.0
31/08:30pm 24.8 27.3 21.7 83 2.1 E 11 19 6 10 1013.9 1013.8 0.0
31/08:00pm 24.6 27.9 21.9 85 1.8 ENE 7 15 4 8 1013.6 - 0.0
31/07:30pm 24.8 27.6 21.5 82 2.2 ENE 9 13 5 7 1013.4 1013.3 0.0
31/07:00pm 25.1 27.6 21.0 78 2.7 ENE 9 15 5 8 1013.1 - 0.0
31/06:30pm 25.4 27.8 20.9 76 3.0 E 9 17 5 9 1012.9 1012.8 0.0
31/06:00pm 26.4 28.4 20.7 71 3.7 E 11 19 6 10 1012.8 1012.7 0.0
31/05:30pm 26.9 28.8 20.5 68 4.2 E 11 19 6 10 1012.6 1012.5 0.0
31/05:00pm 27.4 28.5 19.7 63 5.0 E 13 19 7 10 1012.4 - 0.0
31/04:30pm 28.4 29.5 19.6 59 5.7 E 13 20 7 11 1012.4 1012.3 0.0
31/04:00pm 27.8 28.6 19.8 61 5.2 E 15 20 8 11 1012.3 - 0.0
31/03:30pm 28.6 29.6 19.5 58 5.9 E 13 20 7 11 1012.7 1012.6 0.0
31/03:00pm 28.2 28.6 18.9 57 6.0 E 15 22 8 12 1013.0 1012.9 0.0
31/02:30pm 28.6 30.1 20.6 62 5.3 E 13 20 7 11 1013.5 1013.4 0.0
31/02:00pm 28.1 28.6 20.1 62 5.2 E 17 24 9 13 1013.8 - 0.0
31/01:30pm 27.6 27.6 19.7 62 5.1 E 19 24 10 13 1014.3 1014.2 0.0
31/01:00pm 27.8 28.1 19.6 61 5.3 E 17 24 9 13 1014.6 - 0.0
31/12:30pm 27.7 28.0 19.5 61 5.3 E 17 22 9 12 1015.0 1014.9 0.0
31/12:00pm 27.0 27.5 20.1 66 4.5 E 17 24 9 13 1015.2 1015.1 0.0
31/11:30am 27.0 28.0 21.1 70 3.9 E 17 22 9 12 1015.5 1015.4 0.0
31/11:00am 26.6 28.2 20.7 70 3.9 E 13 24 7 13 1015.8 - 0.0
31/10:30am 26.8 29.2 21.6 73 3.5 E 11 19 6 10 1016.1 1016.0 0.0
31/10:00am 25.9 27.6 20.9 74 3.3 E 13 17 7 9 1016.4 - 0.0
31/09:30am 25.4 27.6 21.1 77 2.8 ESE 11 17 6 9 1016.3 1016.2 0.0
31/09:00am 24.7 26.7 20.8 79 2.6 ESE 11 13 6 7 1016.1 1016.0 0.0
31/08:30am 24.4 26.6 21.1 82 2.2 SE 11 15 6 8 1016.0 1015.9 0.0
31/08:00am 23.5 26.0 21.0 86 1.6 SE 9 13 5 7 1015.8 - 0.0
31/07:30am 23.1 26.1 21.2 89 1.2 SE 7 13 4 7 1015.5 1015.4 0.0
31/07:00am 23.6 26.3 21.3 87 1.5 ESE 9 15 5 8 1015.3 - 0.0
31/06:30am 23.4 25.9 21.1 87 1.5 E 9 13 5 7 1015.1 1015.0 0.0
31/06:00am 23.4 25.5 20.9 86 1.6 E 11 15 6 8 1015.0 1014.9 0.0
31/05:30am 23.4 25.7 21.3 88 1.4 E 11 15 6 8 1014.9 1014.8 0.0
31/05:00am 23.4 26.1 21.3 88 1.4 ESE 9 15 5 8 1014.8 - 0.0
31/04:30am 23.5 25.8 21.4 88 1.4 ESE 11 17 6 9 1014.7 1014.6 0.0
31/04:00am 23.9 27.1 21.6 87 1.5 SE 7 11 4 6 1014.8 - 0.0
31/03:30am 24.5 26.2 21.6 84 1.9 E 15 22 8 12 1015.0 1014.9 0.0
31/03:00am 24.5 25.7 21.4 83 2.0 E 17 24 9 13 1015.0 1014.9 0.0
31/02:30am 24.6 25.4 21.3 82 2.2 ESE 19 26 10 14 1015.0 1014.9 0.0
31/02:00am 24.7 26.0 21.6 83 2.1 E 17 24 9 13 1015.0 - 0.0
31/01:30am 24.7 26.1 21.8 84 1.9 E 17 24 9 13 1015.0 1014.9 0.0
31/01:00am 24.7 26.0 21.6 83 2.1 E 17 22 9 12 1015.1 - 0.0
31/12:30am 24.8 26.3 21.3 81 2.3 E 15 24 8 13 1015.1 1015.0 0.0
31/12:00am 24.8 26.3 21.3 81 2.3 E 15 26 8 14 1015.2 1015.1 0.0
 
Date/Time
CST
Temp
°C
App
Temp
°C
Dew
Point
Rel
Hum
%
Delta-T
°C
Wind Press
QNH
hPa
Press
MSL
hPa
Rain
since 9 am
mm
Dir
 
Spd
km/h
Gust
km/h
Spd
kts
Gust
kts
30/11:30pm 24.9 26.5 21.4 81 2.3 E 15 22 8 12 1015.3 1015.2 0.0
30/11:00pm 24.9 26.8 21.4 81 2.3 E 13 22 7 12 1015.5 - 0.0
30/10:30pm 24.9 26.8 21.4 81 2.3 E 13 20 7 11 1015.7 1015.6 0.0
30/10:00pm 24.9 27.3 21.6 82 2.2 ENE 11 20 6 11 1015.7 - 0.0
30/09:30pm 25.0 27.5 21.7 82 2.2 ENE 11 22 6 12 1015.5 1015.4 0.0
30/09:00pm 25.0 27.4 21.5 81 2.3 ENE 11 19 6 10 1015.4 1015.3 0.0
30/08:30pm 25.0 27.5 21.7 82 2.2 ENE 11 19 6 10 1015.1 1015.0 0.0
30/08:00pm 25.1 28.0 21.8 82 2.2 ENE 9 17 5 9 1014.7 - 0.0
30/07:30pm 25.2 27.5 21.3 79 2.6 ENE 11 20 6 11 1014.2 1014.1 0.0
30/07:00pm 25.5 27.6 21.0 76 3.0 E 11 22 6 12 1013.8 - 0.0
30/06:30pm 25.7 27.6 20.5 73 3.4 ENE 11 19 6 10 1013.4 1013.3 0.0
30/06:00pm 26.5 27.7 19.9 67 4.3 ENE 13 24 7 13 1013.1 1013.0 0.0
30/05:30pm 26.9 27.5 19.5 64 4.8 ENE 15 24 8 13 1013.0 1012.9 0.0
30/05:00pm 27.5 27.1 19.0 59 5.5 E 19 28 10 15 1012.9 - 0.0
30/04:30pm 28.3 28.8 19.2 57 5.9 ENE 15 28 8 15 1012.8 1012.7 0.0
30/04:00pm 28.1 27.3 17.9 54 6.5 ENE 19 28 10 15 1012.8 - 0.0
30/03:30pm 28.1 27.4 18.2 55 6.3 ENE 19 30 10 16 1013.0 1012.9 0.0
30/03:00pm 27.8 27.4 18.8 58 5.8 E 19 30 10 16 1013.3 1013.2 0.0
30/02:30pm 27.8 26.8 18.8 58 5.8 E 22 32 12 17 1013.6 1013.5 0.0
30/02:00pm 28.0 27.7 19.2 58 5.7 E 19 30 10 16 1014.0 - 0.0
30/01:30pm 28.0 27.9 19.5 60 5.5 E 19 32 10 17 1014.5 1014.4 0.0
30/01:00pm 27.9 27.3 18.9 58 5.8 E 20 28 11 15 1014.8 - 0.0
30/12:30pm 27.5 26.7 18.5 58 5.7 E 20 32 11 17 1015.3 1015.2 0.0
30/12:00pm 27.2 27.4 19.3 62 5.1 E 17 20 9 11 1015.6 1015.5 0.0
30/11:30am 27.5 27.9 19.0 59 5.5 E 15 22 8 12 1015.9 1015.8 0.0
30/11:00am 26.8 25.7 17.8 57 5.7 E 20 28 11 15 1016.1 - 0.0
30/10:30am 26.4 26.3 18.8 63 4.9 E 17 24 9 13 1016.4 1016.3 0.0
30/10:00am 26.0 26.3 19.6 68 4.1 ESE 17 26 9 14 1016.8 - 0.0
30/09:30am 25.1 24.8 19.2 70 3.8 ESE 19 24 10 13 1016.8 1016.7 0.0
30/09:00am 24.6 24.7 19.2 72 3.5 SE 17 24 9 13 1016.7 1016.6 0.0
30/08:30am 23.8 23.9 19.1 75 3.0 SE 17 22 9 12 1016.5 1016.4 0.0
30/08:00am 23.3 23.7 19.0 77 2.7 SE 15 20 8 11 1016.2 - 0.0
30/07:30am 22.6 24.2 19.2 81 2.2 SE 9 13 5 7 1015.9 1015.8 0.0
30/07:00am 22.0 23.7 18.6 81 2.1 SE 7 13 4 7 1015.7 - 0.0
30/06:30am 22.2 23.6 18.6 80 2.3 SE 9 13 5 7 1015.5 1015.4 0.0
30/06:00am 22.3 23.7 18.7 80 2.3 SE 9 11 5 6 1015.4 1015.3 0.0
30/05:30am 22.6 23.9 18.4 77 2.6 ESE 9 11 5 6 1015.3 1015.2 0.0
30/05:00am 22.9 24.2 18.4 76 2.8 ESE 9 13 5 7 1015.2 - 0.0
30/04:30am 23.1 23.9 18.2 74 3.1 ESE 11 15 6 8 1014.9 1014.8 0.0
30/04:00am 23.2 23.6 18.1 73 3.2 ESE 13 20 7 11 1014.8 - 0.0
30/03:30am 23.7 22.9 17.9 70 3.6 ESE 19 24 10 13 1014.7 1014.6 0.0
30/03:00am 24.0 22.9 17.7 68 3.9 ESE 20 28 11 15 1014.8 1014.7 0.0
30/02:30am 24.1 23.5 17.6 67 4.0 ESE 17 24 9 13 1015.0 1014.9 0.0
30/02:00am 24.4 23.3 17.4 65 4.4 ESE 19 24 10 13 1015.0 - 0.0
30/01:30am 24.7 23.6 17.4 64 4.5 ESE 19 26 10 14 1015.1 1015.0 0.0
30/01:00am 24.9 23.9 17.6 64 4.6 ESE 19 26 10 14 1015.5 - 0.0
30/12:30am 25.0 24.8 18.4 66 4.2 ESE 17 24 9 13 1015.7 1015.6 0.0
30/12:00am 24.7 27.1 22.2 86 1.7 ESE 13 20 7 11 1015.8 1015.7 0.0
 
Date/Time
CST
Temp
°C
App
Temp
°C
Dew
Point
Rel
Hum
%
Delta-T
°C
Wind Press
QNH
hPa
Press
MSL
hPa
Rain
since 9 am
mm
Dir
 
Spd
km/h
Gust
km/h
Spd
kts
Gust
kts
29/11:30pm 24.9 26.2 22.4 86 1.7 E 19 26 10 14 1015.9 1015.8 0.0
29/11:00pm 24.9 26.6 22.4 86 1.7 E 17 26 9 14 1015.8 - 0.0
29/10:30pm 25.1 26.8 22.4 85 1.8 E 17 26 9 14 1015.8 1015.7 0.0
29/10:00pm 25.1 26.3 22.2 84 1.9 E 19 26 10 14 1015.7 - 0.0
29/09:30pm 25.2 26.6 21.9 82 2.2 E 17 26 9 14 1015.7 1015.6 0.0
29/09:00pm 25.4 26.8 21.9 81 2.3 E 17 26 9 14 1015.6 1015.5 0.0
29/08:30pm 25.3 27.1 21.8 81 2.3 E 15 22 8 12 1015.4 1015.3 0.0
29/08:00pm 25.5 27.2 21.6 79 2.6 E 15 24 8 13 1015.2 - 0.0
29/07:30pm 25.3 27.5 21.8 81 2.3 E 13 20 7 11 1015.0 1014.9 0.0
29/07:00pm 25.3 26.5 21.4 79 2.6 E 17 24 9 13 1014.6 - 0.0
29/06:30pm 25.4 26.6 21.5 79 2.6 E 17 28 9 15 1014.3 1014.2 0.0
29/06:00pm 25.9 27.4 21.3 76 3.0 E 15 24 8 13 1014.0 1013.9 0.0
29/05:30pm 26.6 28.2 21.4 73 3.5 E 15 24 8 13 1013.6 1013.5 0.0
29/05:00pm 26.9 27.5 21.0 70 3.9 E 19 28 10 15 1013.4 - 0.0
29/04:30pm 27.1 27.6 20.9 69 4.1 E 19 28 10 15 1013.3 1013.2 0.0
29/04:00pm 26.9 27.5 21.0 70 3.9 ENE 19 32 10 17 1013.3 - 0.0
29/03:30pm 27.6 27.9 20.4 65 4.7 E 19 32 10 17 1013.4 1013.3 0.0

Other Formats:

Comma delimited format used in spreadsheet applications
http://www.bom.gov.au/fwo/IDD60801/IDD60801.94139.axf

JavaScript Object Notation format (JSON) in row-major order
http://www.bom.gov.au/fwo/IDD60801/IDD60801.94139.json